Etusivu
METAR-TAF:

METAR-TAF

Lentoasemat :

Polokwane, Etelä-Afrikka

Leveyspiiri: 23-50-43S, Pituuspiiri: 29-27-31E, korkeus merenpinnasta: 1242 m

Tämänhetkinen sää

Tämä raportti tehtiin 58 minuuttia sitten, kello 19.00 UTC
Tuuli 3 kn koillisesta
Lämpötila 14°C
Kosteus 72%
Ilmanpaine 1028 hPa

METAR: FAPP 221900Z AUTO 04003KT //// // ////// 14/09 Q1028

Aika: 21:58 (19:58 UTC)

Sääennuste

Tämä raportti tehtiin 10 tuntia ja 58 minuuttia sitten, kello 09.00 UTC
Ennuste voimassa 22. päivästä klo 10 UTC - 22. päivään klo 18 UTC
Tuuli 10 kn pohjoisen/luoteesta
Näkyvyys 10 km tai enemmän
ei pilviä alle 1500 m:ssä eikä cumulonimbus-pilviä
Tulossa
22. päivästä klo 15 UTC - 22. päivään klo 17 UTC
Tuuli 3 kn eri suunnista

TAF: FAPP 220900Z 2210/2218 34010KT CAVOK TX24/2212Z TN14/2218Z BECMG 2215/2217 VRB03KT

Säähavainnot ja -ennusteet yli 4000 lentoasemalta (METAR- ja TAF-raportit).

Käytössä olevat sääasemat on merkitty karttaan keltaisilla ja punaisilla pisteillä.

Aseta hiiri pisteen päälle nähdäksesi sääaseman nimen.

Klikkaa sitten nähdäksesi säähavainnot ja -ennusteet.

Kartan vaihtaminen: klikkaa mustalla rastilla varustettuja vihreitä pisteitä, niin voit zoomata sisään; viivalla varustettua vihreää pistettä, niin voit zoomata ulos tai vihreitä nuolia, niin pääset viereisille kartoille.


METAR-TAF: